Time;durP1;ratioP1;P1;durP2;ratioP2;P2;SDS_P1;SDS_P2;PMS_P1;PMS_P2;Temp;Humidity;BMP_temperature;BMP_pressure;BME280_temperature;BME280_humidity;BME280_pressure;Samples;Min_cycle;Max_cycle;Signal;HPM_P1;HPM_P2
2021/08/17 00:00:01;;;;;;;7.30;0.60;;;;;;;17.07;62.55;99694.40;125799;1093;22774;-62
2021/08/17 00:02:33;;;;;;;4.50;0.60;;;;;;;17.03;62.49;99697.52;125748;1093;22770;-60
2021/08/17 00:05:04;;;;;;;2.70;0.40;;;;;;;17.01;62.50;99702.19;125757;1093;22743;-61
2021/08/17 00:07:37;;;;;;;3.35;0.60;;;;;;;16.95;62.79;99708.66;125874;1093;22765;-62
2021/08/17 00:10:11;;;;;;;3.40;0.33;;;;;;;16.92;62.46;99704.08;125767;1093;22784;-61
2021/08/17 00:12:42;;;;;;;3.23;0.40;;;;;;;16.89;62.56;99704.41;125982;1093;22767;-62
2021/08/17 00:15:14;;;;;;;3.45;0.50;;;;;;;16.83;62.24;99701.67;125776;1093;22940;-61
2021/08/17 00:17:46;;;;;;;4.30;0.60;;;;;;;16.80;62.61;99705.55;126030;1093;22787;-63
2021/08/17 00:20:17;;;;;;;2.45;0.40;;;;;;;16.78;62.80;99699.69;125827;1093;24184;-60
2021/08/17 00:22:48;;;;;;;3.15;0.50;;;;;;;16.75;62.41;99692.31;126075;1093;22815;-61
2021/08/17 00:25:20;;;;;;;1.80;0.50;;;;;;;16.72;62.23;99693.38;125754;1093;23296;-61
2021/08/17 00:27:51;;;;;;;2.85;0.60;;;;;;;16.69;62.23;99700.09;125707;1093;22919;-61
2021/08/17 00:30:23;;;;;;;2.15;0.40;;;;;;;16.66;62.17;99686.29;125745;1093;22757;-61
2021/08/17 00:32:54;;;;;;;1.95;0.40;;;;;;;16.62;62.30;99697.88;125791;1093;23398;-62
2021/08/17 00:35:26;;;;;;;2.13;0.50;;;;;;;16.59;62.73;99689.73;125686;1093;22762;-62
2021/08/17 00:37:58;;;;;;;3.30;0.60;;;;;;;16.55;62.68;99694.92;126133;1092;22782;-61
2021/08/17 00:40:30;;;;;;;2.65;1.15;;;;;;;16.54;62.76;99696.97;126118;1093;22864;-63
2021/08/17 00:43:02;;;;;;;3.50;0.40;;;;;;;16.52;62.95;99693.16;126020;1093;22736;-62
2021/08/17 00:45:34;;;;;;;4.05;0.70;;;;;;;16.50;63.04;99698.56;125920;1092;25864;-62
2021/08/17 00:48:07;;;;;;;3.40;0.60;;;;;;;16.48;62.79;99701.13;125794;1093;22759;-61
2021/08/17 00:50:39;;;;;;;2.90;0.70;;;;;;;16.43;62.77;99690.70;125941;1092;25970;-61
2021/08/17 00:53:12;;;;;;;6.50;0.60;;;;;;;16.37;62.51;99687.95;125777;1093;22859;-61
2021/08/17 00:55:44;;;;;;;5.10;0.60;;;;;;;16.35;62.79;99689.77;125823;1093;22896;-61
2021/08/17 00:58:15;;;;;;;3.85;0.50;;;;;;;16.29;62.64;99686.26;125774;1093;22825;-61
2021/08/17 01:00:47;;;;;;;3.73;0.60;;;;;;;16.27;63.17;99691.66;125753;1093;22877;-61
2021/08/17 01:03:19;;;;;;;2.70;0.60;;;;;;;16.22;63.79;99684.83;125810;1093;22784;-61
2021/08/17 01:05:52;;;;;;;3.10;0.50;;;;;;;16.16;63.74;99695.38;125781;1092;22788;-61
2021/08/17 01:08:25;;;;;;;3.30;0.65;;;;;;;16.08;64.01;99689.59;125753;1093;27498;-61
2021/08/17 01:10:58;;;;;;;2.30;0.50;;;;;;;15.97;64.09;99700.97;125999;1093;25861;-60
2021/08/17 01:13:29;;;;;;;3.60;0.50;;;;;;;15.86;64.40;99686.27;125841;1093;22757;-61
2021/08/17 01:16:01;;;;;;;5.30;0.70;;;;;;;15.74;64.99;99696.91;125894;1093;22787;-60
2021/08/17 01:18:33;;;;;;;3.17;0.60;;;;;;;15.64;64.90;99692.92;125753;1093;27169;-60
2021/08/17 01:21:08;;;;;;;5.50;0.77;;;;;;;15.54;65.00;99688.91;125879;1093;24445;-59
2021/08/17 01:23:40;;;;;;;1.70;0.40;;;;;;;15.48;65.54;99695.90;125944;1093;22789;-62
2021/08/17 01:26:11;;;;;;;2.00;0.50;;;;;;;15.40;65.79;99684.41;125845;1093;22759;-60
2021/08/17 01:28:43;;;;;;;3.05;0.70;;;;;;;15.30;65.86;99698.06;125897;1092;22896;-60
2021/08/17 01:31:18;;;;;;;6.10;0.70;;;;;;;15.22;65.42;99699.16;125818;1093;26951;-60
2021/08/17 01:33:49;;;;;;;2.80;0.50;;;;;;;15.14;65.92;99687.73;125769;1093;27338;-59
2021/08/17 01:36:22;;;;;;;4.73;0.80;;;;;;;15.09;65.89;99690.56;125868;1093;22765;-59
2021/08/17 01:38:55;;;;;;;4.20;0.70;;;;;;;15.04;66.60;99682.95;126003;1093;25031;-62
2021/08/17 01:41:29;;;;;;;4.35;0.80;;;;;;;14.98;66.29;99697.03;125830;1092;22850;-60
2021/08/17 01:44:04;;;;;;;4.25;0.80;;;;;;;14.94;66.27;99695.81;125917;1093;22858;-60
2021/08/17 01:46:35;;;;;;;2.60;0.50;;;;;;;14.91;66.38;99706.05;125898;1093;22957;-60
2021/08/17 01:49:06;;;;;;;1.97;0.57;;;;;;;14.88;66.56;99692.25;126265;1093;22830;-60
2021/08/17 01:51:37;;;;;;;4.10;0.60;;;;;;;14.86;66.76;99704.02;125830;1093;22831;-59
2021/08/17 01:54:10;;;;;;;3.85;0.60;;;;;;;14.85;66.68;99708.13;125956;1093;27276;-62
2021/08/17 01:56:44;;;;;;;3.75;0.70;;;;;;;14.82;66.64;99711.97;125935;1093;22781;-60
2021/08/17 01:59:16;;;;;;;3.30;0.55;;;;;;;14.82;66.93;99725.25;125948;1092;22787;-59
2021/08/17 02:01:48;;;;;;;2.95;0.60;;;;;;;14.78;66.59;99722.73;126179;1093;22760;-61
2021/08/17 02:04:22;;;;;;;2.77;0.63;;;;;;;14.78;66.63;99736.78;125994;1093;25912;-60
2021/08/17 02:06:53;;;;;;;3.45;0.70;;;;;;;14.77;66.31;99729.65;125806;1093;25861;-60
2021/08/17 02:09:25;;;;;;;5.85;0.70;;;;;;;14.74;65.70;99741.14;125721;1093;22950;-60
2021/08/17 02:11:57;;;;;;;3.90;0.73;;;;;;;14.70;65.84;99737.84;125757;1093;23473;-60
2021/08/17 02:14:29;;;;;;;5.70;0.70;;;;;;;14.65;65.97;99733.78;125802;1093;22898;-62
2021/08/17 02:17:01;;;;;;;3.55;0.50;;;;;;;14.62;65.91;99750.92;125929;1092;22986;-60
2021/08/17 02:19:32;;;;;;;3.20;0.60;;;;;;;14.59;65.71;99742.25;125873;1093;22768;-60
2021/08/17 02:22:04;;;;;;;2.25;0.55;;;;;;;14.56;65.54;99737.69;125860;1093;22757;-61
2021/08/17 02:24:37;;;;;;;4.10;0.60;;;;;;;14.55;65.12;99752.99;125835;1093;24423;-61
2021/08/17 02:27:11;;;;;;;4.18;0.80;;;;;;;14.55;65.60;99743.80;125971;1092;26242;-60
2021/08/17 02:29:43;;;;;;;3.60;0.65;;;;;;;14.52;65.80;99748.40;125934;1093;24449;-60
2021/08/17 02:32:14;;;;;;;3.15;0.60;;;;;;;14.49;65.54;99746.64;125954;1093;22834;-60
2021/08/17 02:34:46;;;;;;;6.27;0.80;;;;;;;14.46;65.64;99749.73;125826;1091;23271;-59
2021/08/17 02:37:18;;;;;;;3.00;0.55;;;;;;;14.42;65.68;99752.79;125836;1093;22921;-58
2021/08/17 02:39:49;;;;;;;3.20;0.80;;;;;;;14.39;65.66;99758.69;125922;1093;24481;-60
2021/08/17 02:42:21;;;;;;;7.57;0.80;;;;;;;14.37;66.02;99761.25;125856;1093;22762;-59
2021/08/17 02:44:53;;;;;;;3.60;0.75;;;;;;;14.34;66.21;99770.69;125818;1093;22983;-59
2021/08/17 02:47:26;;;;;;;5.30;0.70;;;;;;;14.29;66.12;99752.61;125881;1093;22739;-60
2021/08/17 02:49:57;;;;;;;3.10;0.65;;;;;;;14.24;66.85;99761.77;125859;1093;22761;-60
2021/08/17 02:52:30;;;;;;;5.80;0.75;;;;;;;14.22;66.42;99769.17;126119;1093;22934;-60
2021/08/17 02:55:01;;;;;;;4.05;0.70;;;;;;;14.20;66.40;99766.13;125775;1093;22722;-61
2021/08/17 02:57:33;;;;;;;7.30;0.90;;;;;;;14.16;66.57;99763.59;125866;1093;22803;-60
2021/08/17 03:00:06;;;;;;;5.40;0.70;;;;;;;14.15;67.19;99769.73;125925;1093;27201;-62
2021/08/17 03:02:38;;;;;;;5.90;0.80;;;;;;;14.12;66.76;99773.55;125941;1093;22915;-60
2021/08/17 03:05:12;;;;;;;5.07;0.90;;;;;;;14.09;66.57;99768.98;125883;1093;22835;-59
2021/08/17 03:07:54;;;;;;;6.87;0.87;;;;;;;14.08;66.70;99775.86;125956;1093;25861;-60
2021/08/17 03:10:26;;;;;;;8.00;0.90;;;;;;;14.07;66.68;99782.77;126211;1093;22785;-60
2021/08/17 03:12:57;;;;;;;6.30;1.00;;;;;;;14.05;66.83;99777.65;125975;1093;27530;-60
2021/08/17 03:15:32;;;;;;;6.40;0.93;;;;;;;14.03;67.04;99793.50;125853;1093;27202;-62
2021/08/17 03:18:06;;;;;;;8.55;1.10;;;;;;;14.00;67.25;99774.86;125869;1093;22831;-60
2021/08/17 03:20:39;;;;;;;4.60;0.93;;;;;;;13.96;67.72;99791.97;125913;1093;22809;-60
2021/08/17 03:23:14;;;;;;;7.00;0.80;;;;;;;13.92;67.51;99785.09;125940;1093;22784;-59
2021/08/17 03:25:45;;;;;;;7.47;0.90;;;;;;;13.88;67.86;99793.77;125898;1093;22736;-62
2021/08/17 03:28:25;;;;;;;8.17;0.97;;;;;;;13.84;67.99;99786.89;125744;1093;26210;-62
2021/08/17 03:30:57;;;;;;;6.75;1.50;;;;;;;13.80;68.13;99789.97;125770;1093;22815;-61
2021/08/17 03:33:29;;;;;;;5.20;0.90;;;;;;;13.76;68.64;99801.42;125792;1093;22760;-60
2021/08/17 03:36:00;;;;;;;9.20;0.80;;;;;;;13.73;69.08;99796.84;125801;1093;24466;-59
2021/08/17 03:38:32;;;;;;;7.20;0.85;;;;;;;13.73;69.17;99804.50;125862;1093;25867;-59
2021/08/17 03:41:04;;;;;;;7.77;1.10;;;;;;;13.70;69.23;99797.86;125835;1093;25862;-61
2021/08/17 03:43:37;;;;;;;7.80;1.10;;;;;;;13.66;69.14;99790.97;125923;1093;22754;-60
2021/08/17 03:46:08;;;;;;;8.40;1.60;;;;;;;13.65;69.27;99809.86;125829;1093;22761;-60
2021/08/17 03:48:43;;;;;;;6.35;0.90;;;;;;;13.64;69.43;99805.52;125833;1093;24461;-60
2021/08/17 03:51:14;;;;;;;12.20;1.15;;;;;;;13.62;69.68;99810.88;125883;1093;22761;-61
2021/08/17 03:53:46;;;;;;;9.43;1.37;;;;;;;13.60;69.67;99810.62;125759;1093;22765;-59
2021/08/17 03:56:17;;;;;;;8.20;1.10;;;;;;;13.59;69.87;99811.14;125758;1093;25980;-59
2021/08/17 03:58:48;;;;;;;4.15;0.85;;;;;;;13.58;70.12;99807.56;125805;1093;24419;-60
2021/08/17 04:01:20;;;;;;;8.77;0.90;;;;;;;13.56;70.01;99824.13;125894;1093;22823;-59
2021/08/17 04:03:51;;;;;;;7.70;1.05;;;;;;;13.56;70.38;99837.38;125701;1093;23388;-59
2021/08/17 04:06:22;;;;;;;8.13;1.10;;;;;;;13.54;70.45;99842.73;125773;1093;22812;-60
2021/08/17 04:08:54;;;;;;;7.75;1.00;;;;;;;13.55;70.51;99838.67;125741;1093;29131;-58
2021/08/17 04:11:26;;;;;;;6.80;1.20;;;;;;;13.55;70.81;99830.26;125785;1093;30418;-59
2021/08/17 04:13:59;;;;;;;7.40;1.05;;;;;;;13.56;71.14;99831.77;125680;1093;22802;-60
2021/08/17 04:16:30;;;;;;;6.55;0.95;;;;;;;13.56;70.97;99835.35;125784;1092;25967;-60
2021/08/17 04:19:02;;;;;;;4.87;1.07;;;;;;;13.57;71.06;99838.92;125793;1092;23325;-60
2021/08/17 04:21:33;;;;;;;9.50;1.10;;;;;;;13.56;71.08;99835.35;125816;1093;28494;-60
2021/08/17 04:24:05;;;;;;;8.90;1.00;;;;;;;13.55;71.33;99833.80;125765;1093;26467;-61
2021/08/17 04:26:36;;;;;;;4.83;1.00;;;;;;;13.55;71.55;99833.80;125810;1093;22759;-59
2021/08/17 04:29:08;;;;;;;5.85;1.05;;;;;;;13.56;71.12;99826.94;125805;1093;22785;-59
2021/08/17 04:31:39;;;;;;;4.70;0.80;;;;;;;13.58;71.15;99835.61;125799;1092;22788;-59
2021/08/17 04:34:11;;;;;;;7.07;1.10;;;;;;;13.56;71.22;99824.13;125759;1093;22857;-60
2021/08/17 04:36:42;;;;;;;3.00;0.90;;;;;;;13.58;71.24;99832.80;125894;1091;22781;-59
2021/08/17 04:39:14;;;;;;;7.30;1.10;;;;;;;13.61;71.51;99842.98;125777;1093;26248;-60
2021/08/17 04:41:46;;;;;;;7.23;1.20;;;;;;;13.63;71.89;99837.66;125884;1093;22757;-59
2021/08/17 04:44:18;;;;;;;9.75;1.40;;;;;;;13.67;71.93;99846.58;125820;1093;24577;-58
2021/08/17 04:46:50;;;;;;;6.40;1.20;;;;;;;13.71;71.73;99854.73;126220;1093;22781;-60
2021/08/17 04:49:22;;;;;;;8.05;1.20;;;;;;;13.73;71.58;99863.41;125689;1092;22847;-60
2021/08/17 04:51:54;;;;;;;8.43;1.33;;;;;;;13.73;71.81;99864.18;125732;1093;27182;-61
2021/08/17 04:54:26;;;;;;;5.95;0.90;;;;;;;13.77;71.60;99853.47;125674;1091;22770;-59
2021/08/17 04:56:58;;;;;;;6.60;1.00;;;;;;;13.80;71.96;99855.23;125859;1093;25338;-60
2021/08/17 04:59:30;;;;;;;6.00;0.95;;;;;;;13.79;71.51;99867.75;125704;1093;26901;-61
2021/08/17 05:02:01;;;;;;;8.00;1.30;;;;;;;13.78;71.87;99866.20;125734;1093;24602;-59
2021/08/17 05:04:33;;;;;;;6.40;1.25;;;;;;;13.78;71.78;99871.05;125702;1093;22758;-60
2021/08/17 05:07:07;;;;;;;6.75;1.15;;;;;;;13.78;71.90;99871.81;125743;1092;24458;-60
2021/08/17 05:09:38;;;;;;;5.95;0.80;;;;;;;13.76;72.24;99874.36;125756;1093;24546;-59
2021/08/17 05:12:10;;;;;;;5.00;1.10;;;;;;;13.76;71.54;99887.63;125699;1093;22761;-58
2021/08/17 05:14:43;;;;;;;6.13;1.00;;;;;;;13.77;71.64;99889.94;125724;1093;22845;-59
2021/08/17 05:17:14;;;;;;;6.40;1.20;;;;;;;13.77;71.55;99889.17;125715;1092;22712;-59
2021/08/17 05:19:46;;;;;;;5.10;0.90;;;;;;;13.78;71.32;99885.84;125703;1093;24423;-58
2021/08/17 05:22:17;;;;;;;4.53;1.00;;;;;;;13.80;71.20;99886.09;125704;1093;22787;-58
2021/08/17 05:24:49;;;;;;;8.10;1.55;;;;;;;13.82;71.29;99902.45;125652;1092;22838;-57
2021/08/17 05:27:21;;;;;;;8.35;1.50;;;;;;;13.84;70.98;99901.92;125598;1093;22785;-57
2021/08/17 05:29:53;;;;;;;7.60;1.30;;;;;;;13.84;71.06;99904.73;125641;1093;26216;-57
2021/08/17 05:32:29;;;;;;;10.05;1.35;;;;;;;13.84;71.07;99901.92;125676;1093;22852;-58
2021/08/17 05:35:02;;;;;;;6.20;1.20;;;;;;;13.83;70.90;99911.60;125752;1093;22767;-57
2021/08/17 05:37:34;;;;;;;9.40;1.20;;;;;;;13.82;70.84;99912.89;125794;1093;22844;-58
2021/08/17 05:40:07;;;;;;;9.25;1.30;;;;;;;13.82;70.37;99918.50;125705;1093;22733;-60
2021/08/17 05:42:39;;;;;;;6.40;1.15;;;;;;;13.80;70.74;99922.58;125969;1093;22757;-56
2021/08/17 05:45:13;;;;;;;6.37;1.20;;;;;;;13.81;70.47;99926.15;125712;1092;22787;-54
2021/08/17 05:47:46;;;;;;;4.47;1.07;;;;;;;13.81;70.67;99926.15;125925;1092;22784;-57
2021/08/17 05:50:18;;;;;;;8.00;1.40;;;;;;;13.83;70.26;99934.05;125810;1093;22754;-58
2021/08/17 05:52:50;;;;;;;7.95;1.20;;;;;;;13.82;70.49;99932.53;125925;1093;22910;-57
2021/08/17 05:55:22;;;;;;;8.70;1.40;;;;;;;13.82;70.07;99932.53;125871;1093;25839;-58
2021/08/17 05:58:03;;;;;;;8.10;1.60;;;;;;;13.83;70.25;99925.63;125799;1093;25836;-57
2021/08/17 06:00:35;;;;;;;9.73;1.53;;;;;;;13.85;70.09;99931.50;125773;1093;22787;-57
2021/08/17 06:03:06;;;;;;;8.40;1.60;;;;;;;13.86;70.27;99927.44;125775;1093;25819;-57
2021/08/17 06:05:37;;;;;;;10.53;1.43;;;;;;;13.89;70.12;99929.20;125891;1093;22793;-59
2021/08/17 06:08:09;;;;;;;5.75;1.45;;;;;;;13.89;70.20;99920.79;125701;1093;22787;-58
2021/08/17 06:10:42;;;;;;;7.35;1.40;;;;;;;13.90;69.99;99925.14;125944;1093;26283;-58
2021/08/17 06:13:14;;;;;;;9.45;1.75;;;;;;;13.91;69.85;99913.40;125818;1091;22802;-59
2021/08/17 06:15:47;;;;;;;9.53;1.57;;;;;;;13.94;70.02;99920.81;125709;1093;22760;-58
2021/08/17 06:18:19;;;;;;;6.25;1.45;;;;;;;13.96;69.83;99921.06;126016;1092;22784;-57
2021/08/17 06:20:51;;;;;;;13.05;1.50;;;;;;;14.01;69.87;99919.55;126180;1093;25845;-58
2021/08/17 06:23:22;;;;;;;8.57;1.33;;;;;;;14.03;69.46;99928.96;125821;1093;22760;-58
2021/08/17 06:25:54;;;;;;;7.40;1.60;;;;;;;14.06;69.68;99929.98;125751;1093;22819;-60
2021/08/17 06:28:27;;;;;;;4.67;1.20;;;;;;;14.10;69.42;99924.88;125876;1091;22784;-58
2021/08/17 06:30:58;;;;;;;6.77;1.43;;;;;;;14.12;69.53;99923.09;126161;1093;22800;-60
2021/08/17 06:33:30;;;;;;;11.15;1.35;;;;;;;14.18;69.03;99925.89;125864;1093;22766;-57
2021/08/17 06:36:02;;;;;;;6.45;1.30;;;;;;;14.23;69.54;99936.36;126122;1092;22760;-56
2021/08/17 06:38:34;;;;;;;5.65;1.20;;;;;;;14.28;69.41;99936.38;125804;1093;27307;-59
2021/08/17 06:41:05;;;;;;;8.60;1.57;;;;;;;14.32;68.76;99936.89;125812;1093;22784;-58
2021/08/17 06:43:37;;;;;;;8.80;1.80;;;;;;;14.35;68.59;99941.49;125771;1093;22763;-57
2021/08/17 06:46:09;;;;;;;9.05;1.40;;;;;;;14.37;68.68;99933.32;125788;1093;27295;-59
2021/08/17 06:48:41;;;;;;;13.00;1.55;;;;;;;14.41;68.68;99939.44;125854;1093;22785;-61
2021/08/17 06:51:12;;;;;;;8.60;1.50;;;;;;;14.45;68.21;99925.90;125811;1093;22911;-58
2021/08/17 06:53:44;;;;;;;6.45;1.25;;;;;;;14.48;68.06;99940.97;125685;1093;22760;-58
2021/08/17 06:56:15;;;;;;;5.70;1.25;;;;;;;14.49;68.06;99945.29;125727;1092;26280;-59
2021/08/17 06:58:47;;;;;;;11.35;1.60;;;;;;;14.52;68.36;99955.52;128428;1093;27207;-57
2021/08/17 07:01:20;;;;;;;6.97;1.20;;;;;;;14.56;68.46;99950.40;126288;1093;22777;-59
2021/08/17 07:03:51;;;;;;;6.53;1.20;;;;;;;14.57;67.59;99955.50;125891;1093;22725;-58
2021/08/17 07:06:22;;;;;;;7.05;1.10;;;;;;;14.57;67.50;99957.53;125669;1093;22759;-59
2021/08/17 07:08:55;;;;;;;6.03;1.50;;;;;;;14.56;67.57;99951.17;125849;1093;22754;-59
2021/08/17 07:11:27;;;;;;;8.50;1.13;;;;;;;14.53;67.05;99949.38;125922;1093;22787;-60
2021/08/17 07:13:59;;;;;;;6.30;1.20;;;;;;;14.53;67.38;99957.03;125969;1093;22777;-59
2021/08/17 07:16:31;;;;;;;8.03;1.00;;;;;;;14.64;67.56;99961.87;125750;1093;22784;-59
2021/08/17 07:19:03;;;;;;;12.03;1.40;;;;;;;14.75;67.65;99953.42;125743;1093;24429;-58
2021/08/17 07:21:35;;;;;;;10.95;0.95;;;;;;;14.89;67.23;99978.42;125899;1093;22758;-59
2021/08/17 07:24:07;;;;;;;8.87;0.97;;;;;;;15.03;67.34;99974.55;125683;1092;22761;-58
2021/08/17 07:26:39;;;;;;;6.15;1.00;;;;;;;15.12;66.21;99979.13;125930;1093;22985;-57
2021/08/17 07:29:11;;;;;;;6.35;1.05;;;;;;;15.15;66.29;99970.41;125775;1092;22972;-59
2021/08/17 07:31:43;;;;;;;7.65;1.30;;;;;;;15.21;66.71;99976.77;125771;1091;22787;-59
2021/08/17 07:34:14;;;;;;;8.10;1.15;;;;;;;15.26;66.56;99961.94;125808;1093;22787;-59
2021/08/17 07:36:46;;;;;;;6.95;1.00;;;;;;;15.30;66.50;99958.84;125736;1093;25864;-58
2021/08/17 07:39:18;;;;;;;8.05;1.10;;;;;;;15.34;66.49;99962.92;125531;1093;24459;-59
2021/08/17 07:41:52;;;;;;;5.05;1.00;;;;;;;15.37;66.02;99963.94;125654;1093;26736;-57
2021/08/17 07:44:23;;;;;;;10.40;1.10;;;;;;;15.38;66.21;99965.45;125785;1093;22757;-59
2021/08/17 07:46:55;;;;;;;7.00;1.20;;;;;;;15.41;65.82;99970.05;125811;1092;22767;-57
2021/08/17 07:49:26;;;;;;;8.00;1.97;;;;;;;15.39;65.57;99970.55;125899;1093;22764;-59
2021/08/17 07:51:59;;;;;;;7.73;1.17;;;;;;;15.38;65.98;99969.03;125759;1093;25960;-58
2021/08/17 07:54:31;;;;;;;6.45;1.00;;;;;;;15.37;66.01;99967.48;125728;1092;25910;-58
2021/08/17 07:57:02;;;;;;;4.93;0.93;;;;;;;15.36;65.35;99974.41;126021;1093;22854;-56
2021/08/17 07:59:34;;;;;;;12.63;1.17;;;;;;;15.35;65.61;99967.24;125763;1093;22831;-58
2021/08/17 08:02:06;;;;;;;7.50;1.40;;;;;;;15.36;65.29;99980.04;125767;1092;27208;-56
2021/08/17 08:04:37;;;;;;;9.97;1.30;;;;;;;15.34;65.69;99982.61;130076;1093;22508;-58
2021/08/17 08:07:08;;;;;;;6.00;0.87;;;;;;;15.32;64.97;99992.84;130047;1093;22500;-58
2021/08/17 08:09:40;;;;;;;4.77;0.90;;;;;;;15.28;65.15;99979.05;130008;1092;22513;-58
2021/08/17 08:12:13;;;;;;;4.37;0.90;;;;;;;15.29;64.92;99988.27;129998;1092;22463;-58
2021/08/17 08:14:46;;;;;;;8.90;1.00;;;;;;;15.30;65.44;99995.41;126023;1093;22827;-58
2021/08/17 08:17:17;;;;;;;4.00;0.97;;;;;;;15.30;65.51;99993.36;125703;1093;22843;-59
2021/08/17 08:19:49;;;;;;;9.50;1.45;;;;;;;15.31;65.18;100003.31;125886;1093;26273;-58
2021/08/17 08:22:21;;;;;;;7.50;1.20;;;;;;;15.29;64.95;99997.44;125788;1093;22755;-58
2021/08/17 08:24:53;;;;;;;9.60;1.00;;;;;;;15.32;65.40;100006.91;125942;1093;22790;-58
2021/08/17 08:27:25;;;;;;;7.70;1.57;;;;;;;15.35;65.59;100008.69;125799;1093;22815;-59
2021/08/17 08:29:59;;;;;;;9.90;1.00;;;;;;;15.39;65.33;100018.37;125758;1093;22794;-59
2021/08/17 08:32:31;;;;;;;6.10;1.00;;;;;;;15.47;65.24;100010.20;125959;1093;22755;-56
2021/08/17 08:35:03;;;;;;;9.10;1.20;;;;;;;15.55;65.13;100008.37;125816;1093;24515;-59
2021/08/17 08:37:35;;;;;;;8.20;1.30;;;;;;;15.65;65.81;100011.63;126041;1093;22793;-59
2021/08/17 08:40:10;;;;;;;11.60;1.50;;;;;;;15.69;64.53;100014.94;125881;1093;22781;-58
2021/08/17 08:42:41;;;;;;;5.30;1.05;;;;;;;15.67;64.18;100007.02;125975;1093;22757;-57
2021/08/17 08:45:14;;;;;;;8.30;1.20;;;;;;;15.67;64.57;100020.32;125774;1093;26270;-57
2021/08/17 08:47:46;;;;;;;8.70;1.15;;;;;;;15.68;64.93;100011.38;125846;1093;22767;-60
2021/08/17 08:50:18;;;;;;;5.50;1.00;;;;;;;15.73;64.45;100010.57;125994;1093;22787;-59
2021/08/17 08:52:50;;;;;;;9.10;1.10;;;;;;;15.75;64.21;100016.44;125954;1093;26980;-60
2021/08/17 08:55:22;;;;;;;9.80;1.25;;;;;;;15.77;64.49;100015.91;125881;1093;22816;-58
2021/08/17 08:57:53;;;;;;;7.33;1.23;;;;;;;15.84;64.39;100016.14;125801;1093;22790;-58
2021/08/17 09:00:25;;;;;;;7.45;1.25;;;;;;;15.95;63.89;100004.05;125752;1093;22788;-60
2021/08/17 09:02:56;;;;;;;10.40;1.40;;;;;;;16.03;63.87;100011.42;125902;1093;22787;-58
2021/08/17 09:05:28;;;;;;;7.10;1.30;;;;;;;16.06;63.37;100015.22;125838;1093;22763;-58
2021/08/17 09:08:05;;;;;;;7.40;1.40;;;;;;;16.05;63.19;100005.27;125795;1093;27757;-58
2021/08/17 09:10:37;;;;;;;6.00;1.30;;;;;;;16.04;63.50;100006.53;125933;1093;22868;-58
2021/08/17 09:13:08;;;;;;;8.70;1.80;;;;;;;16.04;63.10;100018.57;125910;1093;22784;-57
2021/08/17 09:15:41;;;;;;;6.40;1.70;;;;;;;16.07;63.03;100022.40;125842;1093;22807;-58
2021/08/17 09:18:14;;;;;;;5.60;1.10;;;;;;;16.09;62.25;100017.01;125816;1093;22757;-58
2021/08/17 09:20:47;;;;;;;7.80;1.00;;;;;;;16.10;62.18;100024.16;125908;1093;22784;-59
2021/08/17 09:23:28;;;;;;;11.63;1.40;;;;;;;16.10;62.09;100021.34;125898;1093;24430;-58
2021/08/17 09:26:02;;;;;;;6.43;0.90;;;;;;;16.10;62.42;100019.30;125981;1093;22767;-58
2021/08/17 09:28:37;;;;;;;4.73;1.00;;;;;;;16.11;62.08;100022.88;126048;1093;26545;-57
2021/08/17 09:31:34;;;;;;;8.90;1.13;;;;;;;16.12;62.12;100021.58;125824;1093;22753;-57
2021/08/17 09:34:07;;;;;;;11.55;1.30;;;;;;;16.19;61.89;100018.98;125856;1093;22850;-57
2021/08/17 09:36:44;;;;;;;7.25;1.40;;;;;;;16.25;62.00;100018.16;125876;1093;22763;-59
2021/08/17 09:39:30;;;;;;;6.25;1.40;;;;;;;16.29;62.18;100022.23;125886;1093;23283;-58
2021/08/17 09:42:23;;;;;;;10.80;1.73;;;;;;;16.31;62.24;100027.33;125871;1093;22827;-59
2021/08/17 09:45:13;;;;;;;6.00;1.10;;;;;;;16.35;61.31;100030.63;125885;1093;22781;-58
2021/08/17 09:47:45;;;;;;;;;;;;;;;16.38;61.32;100029.59;125930;1093;22739;-59
2021/08/17 09:50:22;;;;;;;7.90;1.00;;;;;;;16.42;61.75;100024.44;125867;1092;21469;-55
2021/08/17 09:53:08;;;;;;;6.35;0.80;;;;;;;16.51;61.63;100033.34;125953;1093;26899;-58
2021/08/17 09:55:44;;;;;;;5.60;1.00;;;;;;;16.60;61.13;100027.38;126086;1092;22781;-58
2021/08/17 09:58:27;;;;;;;10.30;1.05;;;;;;;16.69;61.89;100038.33;126039;1093;22769;-61
2021/08/17 10:01:02;;;;;;;6.70;1.05;;;;;;;16.80;61.04;100038.20;126077;1093;22816;-58
2021/08/17 10:03:34;;;;;;;6.75;1.10;;;;;;;16.90;60.78;100033.75;126002;1092;22761;-58
2021/08/17 10:06:07;;;;;;;6.20;0.85;;;;;;;16.96;60.61;100028.84;126014;1093;22857;-57
2021/08/17 10:08:41;;;;;;;6.25;1.30;;;;;;;17.03;60.67;100043.65;125945;1093;22757;-59
2021/08/17 10:11:16;;;;;;;9.20;1.35;;;;;;;17.02;60.33;100037.23;126017;1093;24428;-57
2021/08/17 10:13:48;;;;;;;6.25;0.90;;;;;;;16.97;59.52;100036.00;126093;1093;22741;-59
2021/08/17 10:16:23;;;;;;;8.05;1.20;;;;;;;16.95;59.69;100040.63;125856;1093;27672;-58
2021/08/17 10:18:56;;;;;;;12.65;3.60;;;;;;;16.95;59.52;100043.45;125791;1093;22809;-57
2021/08/17 10:21:28;;;;;;;3.60;1.00;;;;;;;16.97;59.54;100052.92;125822;1093;26232;-59
2021/08/17 10:24:00;;;;;;;4.25;0.75;;;;;;;17.03;59.32;100043.65;125810;1093;22834;-58
2021/08/17 10:26:33;;;;;;;3.70;0.75;;;;;;;17.05;59.64;100046.70;125742;1093;22825;-57
2021/08/17 10:29:27;;;;;;;7.17;0.90;;;;;;;17.07;59.53;100049.76;125769;1093;22754;-60
2021/08/17 10:31:59;;;;;;;7.95;1.00;;;;;;;17.08;59.48;100040.76;125889;1093;22815;-58
2021/08/17 10:34:39;;;;;;;6.20;0.90;;;;;;;17.11;58.78;100036.86;125753;1093;22809;-59
2021/08/17 10:37:23;;;;;;;5.50;0.90;;;;;;;17.15;59.47;100033.77;125818;1093;22767;-58
2021/08/17 10:39:54;;;;;;;4.55;0.85;;;;;;;17.17;58.78;100046.06;125701;1093;22787;-59
2021/08/17 10:42:28;;;;;;;5.15;0.80;;;;;;;17.20;58.90;100038.57;125721;1093;22781;-58
2021/08/17 10:45:28;;;;;;;4.75;1.00;;;;;;;17.20;59.40;100028.06;125744;1093;22765;-56
2021/08/17 10:47:59;;;;;;;5.77;1.07;;;;;;;17.25;59.68;100041.35;125747;1093;22757;-58
2021/08/17 10:50:38;;;;;;;5.80;0.80;;;;;;;17.25;59.01;100020.83;125794;1093;22738;-60
2021/08/17 10:53:37;;;;;;;7.00;0.90;;;;;;;17.26;59.13;100033.63;125772;1093;22956;-57
2021/08/17 10:56:16;;;;;;;11.95;1.00;;;;;;;17.25;58.56;100030.06;125699;1093;22917;-57
2021/08/17 10:58:49;;;;;;;5.15;0.75;;;;;;;17.21;57.81;100035.24;126130;1093;22781;-59
2021/08/17 11:01:40;;;;;;;7.35;0.90;;;;;;;17.17;58.33;100031.95;125732;1093;22787;-58
2021/08/17 11:04:18;;;;;;;;;;;;;;;17.13;57.69;100037.13;125721;1093;26050;-58
2021/08/17 11:06:51;;;;;;;5.40;0.80;;;;;;;17.09;58.72;100050.73;125909;1093;21460;-58
2021/08/17 11:09:25;;;;;;;7.55;0.90;;;;;;;17.10;58.33;100054.33;125745;1093;22995;-60
2021/08/17 11:11:59;;;;;;;10.40;1.00;;;;;;;17.12;58.33;100048.92;125958;1093;26538;-59
2021/08/17 11:14:32;;;;;;;6.05;1.10;;;;;;;17.16;58.63;100049.39;125949;1093;27574;-58
2021/08/17 11:17:05;;;;;;;8.50;1.00;;;;;;;17.17;58.03;100050.93;125829;1093;22831;-59
2021/08/17 11:19:39;;;;;;;7.70;0.83;;;;;;;17.20;58.23;100052.67;125865;1093;22757;-59
2021/08/17 11:22:13;;;;;;;9.75;1.15;;;;;;;17.24;57.56;100055.97;125648;1093;24540;-58
2021/08/17 11:24:46;;;;;;;9.80;1.00;;;;;;;17.31;58.10;100058.20;125815;1092;23486;-60
2021/08/17 11:27:19;;;;;;;7.40;0.80;;;;;;;17.41;58.00;100054.50;125877;1093;27228;-58
2021/08/17 11:29:52;;;;;;;6.65;0.80;;;;;;;17.53;57.89;100064.38;125898;1092;22789;-57
2021/08/17 11:32:37;;;;;;;5.40;1.00;;;;;;;17.63;58.02;100067.59;125875;1093;22785;-58
2021/08/17 11:35:13;;;;;;;8.20;0.70;;;;;;;17.72;57.30;100067.23;125977;1093;27802;-58
2021/08/17 11:37:47;;;;;;;7.50;1.00;;;;;;;17.77;57.31;100072.80;125935;1093;24340;-59
2021/08/17 11:40:24;;;;;;;5.65;0.80;;;;;;;17.81;57.52;100077.39;125981;1093;22796;-58
2021/08/17 11:43:01;;;;;;;5.15;0.70;;;;;;;17.83;56.41;100071.97;125882;1092;22784;-58
2021/08/17 11:45:37;;;;;;;8.85;0.75;;;;;;;17.76;55.28;100079.75;125955;1092;23547;-60
2021/08/17 11:48:09;;;;;;;7.35;0.70;;;;;;;17.70;56.68;100076.24;125811;1092;24455;-60